createdAt,value
2022-08-26T00:01:28.948Z,4.93
2022-08-26T00:03:56.577Z,3.47
2022-08-26T00:06:23.473Z,3.47
2022-08-26T00:08:50.336Z,5.15
2022-08-26T00:11:26.627Z,4.35
2022-08-26T00:13:56.962Z,6.38
2022-08-26T00:16:28.153Z,8.45
2022-08-26T00:18:55.542Z,4.80
2022-08-26T00:21:22.302Z,3.13
2022-08-26T00:23:50.280Z,4.78
2022-08-26T00:26:16.988Z,6.28
2022-08-26T00:28:44.536Z,6.28
2022-08-26T00:31:11.599Z,3.53
2022-08-26T00:33:41.871Z,3.83
2022-08-26T00:36:09.553Z,4.55
2022-08-26T00:38:47.647Z,5.47
2022-08-26T00:41:14.828Z,3.72
2022-08-26T00:43:47.728Z,3.70
2022-08-26T00:46:18.487Z,6.57
2022-08-26T00:48:47.614Z,5.38
2022-08-26T00:51:19.915Z,3.50
2022-08-26T00:53:59.151Z,4.57
2022-08-26T00:56:26.541Z,3.50
2022-08-26T00:58:53.589Z,7.15
2022-08-26T01:01:23.085Z,4.70
2022-08-26T01:03:49.975Z,3.53
2022-08-26T01:06:16.784Z,5.47
2022-08-26T01:08:43.798Z,4.75
2022-08-26T01:11:11.694Z,9.45
2022-08-26T01:13:38.939Z,3.72
2022-08-26T01:16:08.291Z,7.07
2022-08-26T01:18:35.941Z,7.47
2022-08-26T01:21:03.719Z,4.18
2022-08-26T01:23:38.375Z,5.88
2022-08-26T01:26:07.617Z,5.90
2022-08-26T01:28:46.947Z,5.57
2022-08-26T01:31:20.734Z,5.13
2022-08-26T01:33:51.295Z,4.03
2022-08-26T01:36:18.475Z,4.65
2022-08-26T01:38:47.475Z,6.05
2022-08-26T01:41:16.051Z,6.72
2022-08-26T01:43:47.081Z,3.95
2022-08-26T01:46:16.408Z,4.20
2022-08-26T01:48:44.684Z,4.95
2022-08-26T01:51:12.127Z,3.72
2022-08-26T01:53:39.496Z,3.90
2022-08-26T01:56:09.610Z,7.18
2022-08-26T01:58:36.258Z,3.88
2022-08-26T02:01:03.821Z,6.28
2022-08-26T02:03:30.865Z,4.65
2022-08-26T02:06:00.243Z,6.32
2022-08-26T02:08:47.107Z,3.35
2022-08-26T02:11:13.784Z,4.75
2022-08-26T02:13:43.059Z,4.47
2022-08-26T02:16:10.983Z,7.65
2022-08-26T02:18:39.798Z,9.18
2022-08-26T02:21:07.428Z,3.42
2022-08-26T02:23:35.807Z,5.45
2022-08-26T02:26:14.351Z,5.55
2022-08-26T02:29:04.816Z,3.67
2022-08-26T02:31:31.510Z,4.72
2022-08-26T02:34:09.335Z,4.32
2022-08-26T02:36:37.890Z,7.35
2022-08-26T02:39:07.243Z,5.00
2022-08-26T02:41:34.172Z,6.57
2022-08-26T02:44:00.852Z,6.22
2022-08-26T02:46:29.900Z,3.95
2022-08-26T02:48:57.281Z,6.90
2022-08-26T02:51:24.721Z,3.92
2022-08-26T02:53:51.477Z,4.57
2022-08-26T02:56:18.153Z,3.80
2022-08-26T02:58:46.152Z,5.43
2022-08-26T03:01:20.208Z,4.35
2022-08-26T03:03:48.637Z,4.72
2022-08-26T03:06:16.725Z,5.90
2022-08-26T03:08:43.421Z,5.47
2022-08-26T03:11:11.326Z,7.45
2022-08-26T03:13:38.359Z,5.18
2022-08-26T03:16:05.520Z,5.32
2022-08-26T03:18:32.715Z,4.32
2022-08-26T03:21:04.404Z,4.72
2022-08-26T03:23:32.307Z,4.72
2022-08-26T03:25:59.130Z,5.90
2022-08-26T03:28:27.234Z,6.97
2022-08-26T03:30:54.286Z,4.50
2022-08-26T03:33:22.355Z,4.57
2022-08-26T03:35:50.707Z,4.85
2022-08-26T03:38:18.300Z,6.07
2022-08-26T03:40:45.478Z,4.47
2022-08-26T03:43:12.911Z,6.45
2022-08-26T03:45:40.935Z,5.43
2022-08-26T03:48:09.556Z,4.45
2022-08-26T03:50:36.192Z,4.25
2022-08-26T03:53:03.346Z,4.30
2022-08-26T03:55:34.031Z,6.80
2022-08-26T03:58:01.188Z,4.15
2022-08-26T04:00:27.818Z,5.60
2022-08-26T04:02:54.531Z,12.60
2022-08-26T04:05:22.118Z,6.35
2022-08-26T04:07:49.488Z,4.10
2022-08-26T04:10:20.261Z,4.85
2022-08-26T04:12:47.270Z,6.07
2022-08-26T04:15:15.165Z,5.18
2022-08-26T04:17:42.497Z,8.60
2022-08-26T04:20:09.829Z,4.28
2022-08-26T04:22:36.501Z,5.30
2022-08-26T04:25:03.275Z,4.38
2022-08-26T04:27:33.715Z,7.32
2022-08-26T04:30:00.654Z,4.95
2022-08-26T04:32:27.397Z,5.68
2022-08-26T04:34:54.123Z,6.90
2022-08-26T04:37:20.761Z,5.18
2022-08-26T04:39:51.373Z,4.53
2022-08-26T04:42:23.257Z,5.68
2022-08-26T04:44:52.865Z,6.32
2022-08-26T04:47:19.533Z,8.63
2022-08-26T04:49:46.175Z,6.70
2022-08-26T04:52:13.013Z,5.13
2022-08-26T04:54:42.002Z,6.30
2022-08-26T04:57:08.725Z,4.95
2022-08-26T04:59:39.093Z,10.27
2022-08-26T05:02:06.958Z,5.60
2022-08-26T05:04:34.135Z,5.82
2022-08-26T05:07:02.930Z,7.03
2022-08-26T05:09:29.917Z,4.72
2022-08-26T05:11:57.240Z,5.30
2022-08-26T05:14:23.968Z,6.00
2022-08-26T05:16:51.073Z,5.15
2022-08-26T05:19:18.931Z,4.80
2022-08-26T05:21:47.116Z,5.13
2022-08-26T05:24:14.236Z,4.40
2022-08-26T05:26:40.921Z,4.65
2022-08-26T05:29:07.974Z,9.60
2022-08-26T05:31:35.058Z,4.90
2022-08-26T05:34:03.671Z,6.82
2022-08-26T05:36:31.100Z,4.80
2022-08-26T05:38:57.914Z,6.78
2022-08-26T05:41:34.283Z,4.60
2022-08-26T05:44:04.369Z,4.78
2022-08-26T05:46:31.195Z,4.75
2022-08-26T05:48:58.297Z,6.03
2022-08-26T05:51:26.188Z,6.55
2022-08-26T05:53:54.486Z,12.27
2022-08-26T05:56:24.891Z,7.20
2022-08-26T05:58:51.921Z,8.15
2022-08-26T06:01:20.260Z,6.65
2022-08-26T06:03:49.979Z,10.48
2022-08-26T06:06:27.680Z,7.97
2022-08-26T06:08:57.949Z,8.05
2022-08-26T06:11:25.685Z,8.10
2022-08-26T06:13:58.977Z,10.85
2022-08-26T06:16:30.078Z,9.32
2022-08-26T06:18:56.726Z,7.35
2022-08-26T06:21:26.337Z,7.97
2022-08-26T06:24:13.030Z,6.70
2022-08-26T06:26:42.735Z,8.77
2022-08-26T06:29:09.610Z,11.05
2022-08-26T06:31:36.582Z,10.70
2022-08-26T06:34:08.542Z,6.93
2022-08-26T06:36:37.180Z,11.73
2022-08-26T06:39:06.188Z,10.02
2022-08-26T06:41:34.430Z,6.13
2022-08-26T06:44:01.502Z,7.68
2022-08-26T06:46:29.689Z,6.93
2022-08-26T06:48:58.272Z,10.00
2022-08-26T06:51:29.159Z,9.57
2022-08-26T06:53:56.513Z,9.80
2022-08-26T06:56:25.403Z,11.25
2022-08-26T06:58:52.747Z,9.10
2022-08-26T07:01:26.988Z,9.88
2022-08-26T07:03:56.981Z,12.45
2022-08-26T07:06:24.594Z,9.75
2022-08-26T07:08:52.850Z,12.10
2022-08-26T07:11:19.944Z,10.23
2022-08-26T07:13:47.409Z,10.10
2022-08-26T07:16:15.388Z,11.98
2022-08-26T07:18:44.886Z,10.52
2022-08-26T07:21:13.154Z,10.30
2022-08-26T07:23:41.355Z,10.55
2022-08-26T07:26:13.004Z,12.63
2022-08-26T07:28:39.713Z,10.20
2022-08-26T07:31:07.453Z,10.02
2022-08-26T07:33:37.469Z,9.65
2022-08-26T07:36:07.086Z,13.18
2022-08-26T07:38:34.341Z,9.30
2022-08-26T07:41:01.907Z,11.10
2022-08-26T07:43:28.960Z,11.52
2022-08-26T07:45:56.237Z,16.05
2022-08-26T07:48:23.085Z,8.93
2022-08-26T07:50:50.525Z,11.55
2022-08-26T07:53:18.198Z,9.30
2022-08-26T07:55:46.404Z,11.02
2022-08-26T07:58:13.119Z,12.40
2022-08-26T08:00:39.788Z,9.98
2022-08-26T08:03:06.588Z,9.48
2022-08-26T08:05:33.910Z,10.32
2022-08-26T08:08:27.031Z,13.38
2022-08-26T08:10:48.857Z,10.90
2022-08-26T08:13:15.645Z,16.13
2022-08-26T08:15:42.456Z,10.15
2022-08-26T08:18:15.452Z,11.23
2022-08-26T08:20:47.738Z,9.40
2022-08-26T08:23:30.522Z,11.82
2022-08-26T08:26:01.369Z,15.20
2022-08-26T08:28:28.724Z,9.38
2022-08-26T08:30:56.415Z,8.18
2022-08-26T08:33:23.292Z,14.27
2022-08-26T08:35:50.207Z,11.60
2022-08-26T08:38:17.057Z,10.60
2022-08-26T08:40:44.803Z,9.07
2022-08-26T08:43:13.709Z,9.70
2022-08-26T08:45:44.686Z,8.55
2022-08-26T08:48:17.173Z,15.30
2022-08-26T08:50:52.083Z,9.23
2022-08-26T08:53:22.647Z,11.75
2022-08-26T08:55:55.491Z,14.35
2022-08-26T08:58:24.840Z,12.30
2022-08-26T09:00:54.289Z,11.07
2022-08-26T09:03:23.806Z,8.93
2022-08-26T09:05:52.511Z,9.10
2022-08-26T09:08:24.580Z,9.73
2022-08-26T09:10:54.400Z,11.13
2022-08-26T09:13:24.966Z,11.20
2022-08-26T09:16:07.319Z,11.55
2022-08-26T09:18:40.176Z,10.82
2022-08-26T09:21:09.161Z,9.52
2022-08-26T09:23:37.534Z,8.43
2022-08-26T09:26:14.371Z,10.73
2022-08-26T09:28:42.620Z,10.70
2022-08-26T09:31:14.458Z,9.98
2022-08-26T09:33:41.662Z,13.40
2022-08-26T09:36:16.957Z,12.65
2022-08-26T09:38:43.832Z,8.65
2022-08-26T09:41:24.950Z,9.38
2022-08-26T09:44:14.547Z,15.57
2022-08-26T09:46:47.334Z,8.50
2022-08-26T09:49:26.803Z,12.63
2022-08-26T09:52:04.515Z,9.88
2022-08-26T09:54:32.784Z,7.10
2022-08-26T09:57:12.507Z,9.48
2022-08-26T09:59:40.073Z,9.25
2022-08-26T10:02:25.813Z,7.47
2022-08-26T10:04:56.340Z,8.77
2022-08-26T10:07:42.064Z,11.13
2022-08-26T10:10:32.045Z,10.43
2022-08-26T10:13:03.372Z,9.48
2022-08-26T10:15:34.444Z,9.68
2022-08-26T10:18:01.354Z,7.47
2022-08-26T10:20:30.974Z,10.65
2022-08-26T10:23:07.344Z,10.13
2022-08-26T10:25:53.532Z,8.90
2022-08-26T10:28:32.778Z,9.68
2022-08-26T10:31:23.311Z,7.80
2022-08-26T10:33:58.687Z,8.45
2022-08-26T10:37:10.562Z,9.00
2022-08-26T10:39:39.131Z,9.02
2022-08-26T10:42:13.909Z,9.68
2022-08-26T10:44:41.110Z,8.98
2022-08-26T10:47:17.348Z,11.23
2022-08-26T10:49:46.683Z,8.15
2022-08-26T10:52:18.740Z,8.70
2022-08-26T10:54:56.890Z,9.13
2022-08-26T10:57:28.666Z,9.13
2022-08-26T11:00:33.016Z,10.27
2022-08-26T11:03:04.086Z,7.88
2022-08-26T11:05:30.759Z,10.18
2022-08-26T11:08:35.949Z,9.43
2022-08-26T11:11:03.111Z,6.15
2022-08-26T11:13:50.646Z,9.00
2022-08-26T11:16:42.886Z,7.45
2022-08-26T11:19:12.803Z,7.72
2022-08-26T11:21:44.231Z,8.30
2022-08-26T11:24:30.237Z,5.88
2022-08-26T11:26:58.424Z,9.68
2022-08-26T11:29:45.594Z,5.55
2022-08-26T11:32:46.050Z,8.90
2022-08-26T11:35:19.371Z,7.63
2022-08-26T11:37:49.177Z,4.95
2022-08-26T11:40:17.968Z,5.72
2022-08-26T11:42:57.069Z,5.93
2022-08-26T11:45:41.116Z,5.55
2022-08-26T11:48:15.022Z,6.40
2022-08-26T11:50:52.209Z,5.80
2022-08-26T11:53:19.231Z,8.60
2022-08-26T11:55:47.304Z,6.28
2022-08-26T11:58:14.962Z,5.50
2022-08-26T12:00:45.672Z,8.57
2022-08-26T12:03:17.514Z,6.90
2022-08-26T12:05:45.460Z,5.60
2022-08-26T12:08:16.314Z,6.70
2022-08-26T12:10:43.135Z,4.88
2022-08-26T12:13:18.024Z,7.03
2022-08-26T12:15:51.503Z,8.52
2022-08-26T12:18:29.713Z,9.70
2022-08-26T12:20:58.776Z,7.15
2022-08-26T12:23:28.443Z,5.30
2022-08-26T12:26:03.414Z,9.20
2022-08-26T12:28:31.127Z,8.57
2022-08-26T12:31:05.955Z,6.70
2022-08-26T12:33:34.628Z,4.60
2022-08-26T12:36:02.108Z,4.80
2022-08-26T12:38:29.893Z,4.53
2022-08-26T12:40:57.092Z,5.72
2022-08-26T12:43:44.020Z,4.75
2022-08-26T12:46:16.497Z,4.78
2022-08-26T12:48:44.766Z,3.78
2022-08-26T12:51:41.926Z,4.55
2022-08-26T12:54:13.813Z,4.10
2022-08-26T12:56:40.634Z,7.25
2022-08-26T12:59:12.203Z,3.85
2022-08-26T13:01:43.045Z,8.73
2022-08-26T13:04:29.241Z,7.45
2022-08-26T13:07:14.785Z,3.95
2022-08-26T13:09:41.549Z,6.63
2022-08-26T13:12:11.610Z,4.10
2022-08-26T13:14:38.356Z,3.13
2022-08-26T13:17:05.119Z,6.95
2022-08-26T13:19:31.763Z,6.43
2022-08-26T13:22:00.182Z,4.93
2022-08-26T13:24:31.071Z,5.72
2022-08-26T13:26:57.781Z,5.10
2022-08-26T13:29:24.422Z,5.07
2022-08-26T13:31:51.996Z,4.47
2022-08-26T13:34:19.889Z,3.92
2022-08-26T13:36:47.719Z,9.48
2022-08-26T13:39:14.489Z,4.35
2022-08-26T13:41:41.292Z,3.63
2022-08-26T13:44:07.991Z,3.58
2022-08-26T13:46:34.745Z,7.57
2022-08-26T13:49:02.117Z,6.40
2022-08-26T13:51:29.802Z,5.00
2022-08-26T13:53:56.587Z,6.63
2022-08-26T13:56:23.751Z,5.80
2022-08-26T13:58:50.430Z,5.93
2022-08-26T14:01:17.528Z,5.35
2022-08-26T14:03:44.597Z,5.03
2022-08-26T14:06:11.914Z,7.55
2022-08-26T14:08:38.918Z,4.57
2022-08-26T14:11:05.733Z,3.97
2022-08-26T14:13:32.387Z,4.55
2022-08-26T14:16:01.424Z,3.42
2022-08-26T14:18:31.065Z,7.30
2022-08-26T14:20:58.142Z,6.05
2022-08-26T14:23:25.707Z,3.72
2022-08-26T14:25:52.529Z,4.43
2022-08-26T14:28:19.313Z,4.25
2022-08-26T14:30:50.666Z,4.38
2022-08-26T14:33:18.387Z,3.70
2022-08-26T14:35:49.113Z,4.18
2022-08-26T14:38:17.002Z,3.70
2022-08-26T14:40:47.201Z,5.95
2022-08-26T14:43:15.726Z,3.83
2022-08-26T14:45:44.210Z,3.85
2022-08-26T14:48:11.159Z,4.15
2022-08-26T14:50:38.298Z,4.57
2022-08-26T14:53:23.511Z,5.53
2022-08-26T14:55:50.555Z,4.60
2022-08-26T14:58:17.223Z,3.63
2022-08-26T15:00:44.194Z,4.00
2022-08-26T15:03:11.175Z,3.75
2022-08-26T15:05:39.869Z,2.60
2022-08-26T15:08:10.498Z,2.97
2022-08-26T15:10:37.630Z,3.08
2022-08-26T15:13:04.471Z,4.85
2022-08-26T15:15:31.159Z,3.58
2022-08-26T15:17:57.813Z,2.97
2022-08-26T15:20:24.877Z,2.83
2022-08-26T15:22:51.673Z,5.85
2022-08-26T15:25:20.074Z,5.18
2022-08-26T15:27:46.879Z,4.40
2022-08-26T15:30:13.761Z,3.92
2022-08-26T15:32:40.843Z,3.33
2022-08-26T15:35:09.336Z,2.92
2022-08-26T15:37:36.587Z,3.47
2022-08-26T15:40:04.753Z,3.75
2022-08-26T15:42:31.749Z,2.95
2022-08-26T15:44:58.675Z,4.22
2022-08-26T15:47:25.363Z,7.03
2022-08-26T15:49:52.055Z,6.00
2022-08-26T15:52:18.689Z,4.68
2022-08-26T15:54:45.489Z,3.75
2022-08-26T15:57:14.394Z,4.13
2022-08-26T15:59:42.120Z,4.00
2022-08-26T16:02:09.593Z,3.13
2022-08-26T16:04:36.815Z,3.97
2022-08-26T16:07:04.205Z,3.53
2022-08-26T16:09:30.902Z,4.80
2022-08-26T16:11:58.061Z,5.95
2022-08-26T16:14:24.834Z,2.47
2022-08-26T16:16:51.478Z,4.75
2022-08-26T16:19:18.216Z,7.55
2022-08-26T16:21:44.920Z,5.90
2022-08-26T16:24:12.599Z,5.05
2022-08-26T16:26:40.796Z,3.88
2022-08-26T16:29:09.782Z,4.78
2022-08-26T16:31:38.197Z,5.07
2022-08-26T16:34:05.805Z,3.80
2022-08-26T16:36:32.669Z,3.63
2022-08-26T16:38:59.487Z,4.85
2022-08-26T16:41:27.518Z,4.20
2022-08-26T16:43:54.368Z,4.53
2022-08-26T16:46:23.615Z,5.65
2022-08-26T16:48:50.416Z,6.18
2022-08-26T16:51:18.207Z,7.40
2022-08-26T16:53:45.686Z,4.90
2022-08-26T16:56:16.310Z,4.38
2022-08-26T16:58:43.449Z,5.88
2022-08-26T17:01:10.229Z,4.85
2022-08-26T17:03:37.365Z,4.65
2022-08-26T17:06:04.162Z,7.07
2022-08-26T17:08:30.848Z,4.40
2022-08-26T17:10:59.291Z,10.57
2022-08-26T17:13:35.596Z,9.77
2022-08-26T17:16:04.897Z,5.65
2022-08-26T17:18:32.390Z,3.53
2022-08-26T17:21:04.086Z,6.32
2022-08-26T17:23:31.073Z,5.38
2022-08-26T17:25:57.845Z,4.68
2022-08-26T17:28:24.524Z,5.88
2022-08-26T17:30:51.211Z,6.28
2022-08-26T17:33:18.687Z,4.68
2022-08-26T17:35:51.240Z,5.40
2022-08-26T17:38:17.989Z,9.65
2022-08-26T17:40:44.639Z,8.40
2022-08-26T17:43:12.480Z,6.88
2022-08-26T17:45:40.298Z,10.95
2022-08-26T17:48:07.665Z,7.97
2022-08-26T17:50:34.418Z,4.18
2022-08-26T17:53:01.097Z,6.00
2022-08-26T17:55:28.028Z,7.57
2022-08-26T17:57:54.776Z,5.53
2022-08-26T18:00:26.462Z,6.82
2022-08-26T18:02:54.094Z,5.75
2022-08-26T18:05:21.007Z,6.30
2022-08-26T18:07:48.392Z,8.88
2022-08-26T18:10:20.285Z,5.20
2022-08-26T18:12:47.516Z,6.88
2022-08-26T18:15:15.475Z,5.15
2022-08-26T18:17:42.653Z,8.77
2022-08-26T18:20:10.505Z,6.55
2022-08-26T18:22:37.349Z,7.20
2022-08-26T18:25:05.442Z,5.68
2022-08-26T18:27:32.314Z,9.07
2022-08-26T18:29:59.130Z,5.38
2022-08-26T18:32:25.843Z,6.25
2022-08-26T18:34:53.164Z,5.97
2022-08-26T18:37:19.786Z,5.80
2022-08-26T18:39:46.462Z,7.65
2022-08-26T18:42:13.101Z,5.05
2022-08-26T18:44:39.712Z,5.90
2022-08-26T18:47:06.736Z,4.55
2022-08-26T18:49:36.581Z,13.95
2022-08-26T18:52:04.284Z,11.80
2022-08-26T18:54:30.928Z,6.22
2022-08-26T18:56:57.544Z,11.07
2022-08-26T18:59:28.406Z,10.45
2022-08-26T19:01:57.492Z,7.47
2022-08-26T19:04:24.415Z,6.10
2022-08-26T19:06:51.952Z,5.22
2022-08-26T19:09:19.000Z,7.30
2022-08-26T19:11:48.832Z,5.68
2022-08-26T19:14:17.132Z,6.15
2022-08-26T19:16:44.869Z,9.57
2022-08-26T19:19:11.789Z,6.65
2022-08-26T19:21:38.829Z,6.28
2022-08-26T19:24:07.247Z,8.27
2022-08-26T19:26:34.345Z,10.02
2022-08-26T19:29:01.223Z,7.45
2022-08-26T19:31:28.419Z,14.52
2022-08-26T19:33:56.847Z,7.30
2022-08-26T19:36:25.347Z,14.00
2022-08-26T19:38:52.501Z,8.38
2022-08-26T19:41:26.547Z,12.00
2022-08-26T19:44:02.628Z,8.77
2022-08-26T19:46:30.945Z,10.07
2022-08-26T19:48:58.239Z,10.43
2022-08-26T19:51:26.718Z,7.40
2022-08-26T19:53:55.162Z,7.50
2022-08-26T19:56:22.375Z,8.20
2022-08-26T19:58:49.559Z,7.57
2022-08-26T20:01:16.724Z,5.97
2022-08-26T20:03:43.595Z,7.00
2022-08-26T20:06:11.480Z,8.82
2022-08-26T20:08:39.251Z,8.90
2022-08-26T20:11:09.053Z,6.32
2022-08-26T20:13:36.391Z,4.22
2022-08-26T20:16:03.201Z,6.63
2022-08-26T20:18:48.605Z,5.07
2022-08-26T20:21:27.630Z,5.13
2022-08-26T20:23:55.340Z,5.43
2022-08-26T20:26:22.141Z,5.22
2022-08-26T20:28:51.129Z,2.53
2022-08-26T20:31:19.381Z,5.35
2022-08-26T20:33:46.849Z,3.60
2022-08-26T20:36:14.903Z,4.78
2022-08-26T20:38:41.739Z,2.30
2022-08-26T20:41:08.688Z,6.05
2022-08-26T20:43:35.490Z,6.63
2022-08-26T20:46:02.558Z,3.08
2022-08-26T20:48:35.039Z,4.90
2022-08-26T20:51:02.071Z,4.30
2022-08-26T20:53:29.097Z,3.45
2022-08-26T20:55:59.349Z,2.47
2022-08-26T20:58:26.178Z,2.88
2022-08-26T21:00:53.070Z,2.97
2022-08-26T21:03:20.006Z,4.90
2022-08-26T21:05:46.913Z,4.93
2022-08-26T21:08:13.732Z,2.95
2022-08-26T21:10:40.699Z,4.18
2022-08-26T21:13:08.032Z,3.72
2022-08-26T21:15:35.267Z,5.03
2022-08-26T21:18:03.371Z,3.35
2022-08-26T21:20:30.691Z,6.35
2022-08-26T21:22:57.337Z,2.83
2022-08-26T21:25:24.243Z,4.38
2022-08-26T21:27:50.912Z,8.30
2022-08-26T21:30:19.592Z,3.38
2022-08-26T21:32:46.310Z,4.95
2022-08-26T21:35:12.934Z,9.38
2022-08-26T21:37:39.771Z,6.22
2022-08-26T21:40:07.611Z,4.38
2022-08-26T21:42:34.900Z,5.82
2022-08-26T21:45:02.280Z,4.32
2022-08-26T21:47:31.337Z,3.20
2022-08-26T21:49:58.265Z,8.30
2022-08-26T21:52:25.144Z,4.22
2022-08-26T21:54:55.921Z,4.50
2022-08-26T21:57:22.653Z,4.80
2022-08-26T21:59:49.384Z,2.90
2022-08-26T22:02:16.392Z,3.28
2022-08-26T22:04:48.105Z,5.97
2022-08-26T22:07:17.400Z,3.78
2022-08-26T22:09:44.571Z,4.53
2022-08-26T22:12:12.178Z,2.55
2022-08-26T22:14:39.760Z,4.43
2022-08-26T22:17:06.367Z,3.45
2022-08-26T22:19:33.975Z,3.42
2022-08-26T22:22:03.704Z,5.47
2022-08-26T22:24:30.289Z,3.42
2022-08-26T22:26:57.130Z,3.42
2022-08-26T22:29:25.111Z,3.03
2022-08-26T22:31:51.891Z,2.90
2022-08-26T22:34:20.553Z,6.45
2022-08-26T22:36:48.145Z,3.25
2022-08-26T22:39:16.308Z,3.30
2022-08-26T22:41:43.906Z,5.97
2022-08-26T22:44:11.742Z,3.15
2022-08-26T22:46:38.976Z,2.88
2022-08-26T22:49:06.412Z,4.18
2022-08-26T22:51:33.291Z,3.58
2022-08-26T22:54:00.611Z,5.63
2022-08-26T22:56:27.283Z,5.85
2022-08-26T22:58:53.876Z,3.88
2022-08-26T23:01:20.686Z,5.38
2022-08-26T23:03:47.442Z,3.60
2022-08-26T23:06:14.201Z,4.38
2022-08-26T23:08:41.987Z,3.40
2022-08-26T23:11:10.610Z,3.65
2022-08-26T23:13:37.349Z,2.85
2022-08-26T23:16:05.373Z,2.70
2022-08-26T23:18:32.429Z,2.85
2022-08-26T23:20:59.158Z,4.30
2022-08-26T23:23:27.640Z,2.47
2022-08-26T23:25:55.015Z,3.33
2022-08-26T23:28:22.313Z,4.45
2022-08-26T23:30:49.579Z,3.60
2022-08-26T23:33:16.215Z,2.75
2022-08-26T23:35:42.850Z,4.03
2022-08-26T23:38:10.114Z,2.67
2022-08-26T23:40:40.528Z,2.58
2022-08-26T23:43:07.915Z,4.10
2022-08-26T23:45:35.149Z,3.25
2022-08-26T23:48:01.967Z,3.50
2022-08-26T23:50:49.894Z,2.90
2022-08-26T23:53:21.649Z,3.22
2022-08-26T23:55:49.483Z,3.88
2022-08-26T23:58:16.873Z,3.88
